Time;durP1;ratioP1;P1;durP2;ratioP2;P2;SDS_P1;SDS_P2;PMS_P1;PMS_P2;Temp;Humidity;BMP_temperature;BMP_pressure;BME280_temperature;BME280_humidity;BME280_pressure;Samples;Min_cycle;Max_cycle;Signal;HPM_P1;HPM_P2
2023/07/04 00:01:11;;;;;;;4.07;2.22;;;;;;;;;;4965863;28;20037;-80
2023/07/04 00:03:38;;;;;;;2.15;1.80;;;;;;;;;;4960539;28;20028;-80
2023/07/04 00:06:05;;;;;;;3.35;1.83;;;;;;;;;;4964570;28;20114;-79
2023/07/04 00:08:33;;;;;;;2.90;2.00;;;;;;;;;;4971851;28;20051;-80
2023/07/04 00:11:01;;;;;;;3.42;2.05;;;;;;;;;;4969843;28;20031;-80
2023/07/04 00:13:27;;;;;;;5.05;1.90;;;;;;;;;;4971607;28;20027;-79
2023/07/04 00:15:54;;;;;;;2.85;1.70;;;;;;;;;;4965934;28;20027;-79
2023/07/04 00:18:20;;;;;;;1.30;1.20;;;;;;;;;;4970189;28;20027;-79
2023/07/04 00:20:54;;;;;;;2.05;1.55;;;;;;;;;;4969822;28;20059;-79
2023/07/04 00:23:24;;;;;;;6.47;2.15;;;;;;;;;;4970867;28;20038;-80
2023/07/04 00:25:52;;;;;;;2.85;2.17;;;;;;;;;;4970249;28;20082;-79
2023/07/04 00:28:18;;;;;;;2.55;1.90;;;;;;;;;;4971450;28;20441;-79
2023/07/04 00:30:44;;;;;;;3.03;1.92;;;;;;;;;;4967062;28;20035;-81
2023/07/04 00:33:13;;;;;;;2.22;1.60;;;;;;;;;;4967890;28;20034;-79
2023/07/04 00:35:39;;;;;;;3.78;1.77;;;;;;;;;;4970265;28;20019;-79
2023/07/04 00:38:05;;;;;;;1.75;1.35;;;;;;;;;;4978396;28;20145;-80
2023/07/04 00:40:31;;;;;;;3.30;1.80;;;;;;;;;;4968957;28;20113;-79
2023/07/04 00:43:03;;;;;;;2.92;1.75;;;;;;;;;;4970474;28;20026;-79
2023/07/04 00:45:33;;;;;;;3.92;1.50;;;;;;;;;;4969152;28;20039;-80
2023/07/04 00:48:01;;;;;;;1.88;1.67;;;;;;;;;;4967367;28;20031;-79
2023/07/04 00:50:31;;;;;;;2.05;1.30;;;;;;;;;;4969274;28;20133;-81
2023/07/04 00:52:58;;;;;;;1.92;1.48;;;;;;;;;;4969327;28;20023;-80
2023/07/04 00:55:25;;;;;;;4.80;1.40;;;;;;;;;;4967813;28;20037;-80
2023/07/04 00:57:50;;;;;;;2.15;1.70;;;;;;;;;;4970772;28;20038;-79
2023/07/04 01:00:25;;;;;;;1.55;1.40;;;;;;;;;;4969044;28;20034;-79
2023/07/04 01:02:59;;;;;;;3.75;1.55;;;;;;;;;;4969063;28;20034;-79
2023/07/04 01:05:33;;;;;;;3.40;2.10;;;;;;;;;;4967855;28;20096;-79
2023/07/04 01:08:02;;;;;;;2.10;1.33;;;;;;;;;;4970004;28;20639;-79
2023/07/04 01:10:32;;;;;;;3.13;1.70;;;;;;;;;;4966973;28;20034;-80
2023/07/04 01:12:58;;;;;;;2.80;1.75;;;;;;;;;;4968532;28;20490;-79
2023/07/04 01:15:24;;;;;;;1.98;1.63;;;;;;;;;;4969269;28;20023;-79
2023/07/04 01:17:54;;;;;;;2.40;1.48;;;;;;;;;;4969229;28;20518;-80
2023/07/04 01:20:20;;;;;;;2.45;1.48;;;;;;;;;;4966500;28;20122;-79
2023/07/04 01:22:49;;;;;;;2.58;1.77;;;;;;;;;;4971140;28;20026;-79
2023/07/04 01:25:20;;;;;;;2.05;1.60;;;;;;;;;;4969080;28;20030;-79
2023/07/04 01:27:46;;;;;;;2.90;2.10;;;;;;;;;;4967411;28;20026;-79
2023/07/04 01:30:12;;;;;;;4.15;1.50;;;;;;;;;;4967248;28;20058;-80
2023/07/04 01:32:39;;;;;;;2.47;1.40;;;;;;;;;;4969629;28;20025;-79
2023/07/04 01:35:05;;;;;;;2.13;1.42;;;;;;;;;;4969029;28;20010;-81
2023/07/04 01:37:31;;;;;;;1.52;1.40;;;;;;;;;;4969235;28;20520;-79
2023/07/04 01:40:01;;;;;;;2.67;1.50;;;;;;;;;;4964333;28;20050;-80
2023/07/04 01:42:36;;;;;;;2.33;1.55;;;;;;;;;;4968713;28;20367;-80
2023/07/04 01:45:03;;;;;;;2.33;1.70;;;;;;;;;;4969076;28;20026;-79
2023/07/04 01:47:30;;;;;;;2.10;1.75;;;;;;;;;;4968321;28;20026;-79
2023/07/04 01:49:56;;;;;;;1.85;1.33;;;;;;;;;;4968464;28;20490;-79
2023/07/04 01:52:22;;;;;;;3.33;1.83;;;;;;;;;;4970241;28;20477;-79
2023/07/04 01:54:48;;;;;;;2.85;1.30;;;;;;;;;;4968125;28;20023;-78
2023/07/04 01:57:14;;;;;;;4.03;1.70;;;;;;;;;;4967548;28;20034;-79
2023/07/04 01:59:40;;;;;;;2.83;1.63;;;;;;;;;;4968302;28;20485;-80
2023/07/04 02:02:06;;;;;;;2.42;1.33;;;;;;;;;;4964504;28;20035;-79
2023/07/04 02:04:32;;;;;;;2.15;1.35;;;;;;;;;;4962615;28;20027;-78
2023/07/04 02:06:58;;;;;;;1.73;1.02;;;;;;;;;;4966006;28;20199;-78
2023/07/04 02:09:24;;;;;;;1.27;1.10;;;;;;;;;;4968882;28;20019;-79
2023/07/04 02:11:50;;;;;;;2.75;1.85;;;;;;;;;;4964349;28;20030;-80
2023/07/04 02:14:17;;;;;;;2.65;1.42;;;;;;;;;;4964995;28;20050;-78
2023/07/04 02:16:47;;;;;;;2.70;1.20;;;;;;;;;;4973043;28;20053;-79
2023/07/04 02:19:13;;;;;;;3.13;1.23;;;;;;;;;;4967100;28;20030;-81
2023/07/04 02:21:39;;;;;;;2.10;1.42;;;;;;;;;;4965917;28;20034;-79
2023/07/04 02:24:05;;;;;;;1.63;1.13;;;;;;;;;;4970802;28;20035;-79
2023/07/04 02:26:32;;;;;;;2.15;1.50;;;;;;;;;;4967840;28;20038;-81
2023/07/04 02:28:58;;;;;;;3.22;1.25;;;;;;;;;;4968180;28;20031;-81
2023/07/04 02:31:25;;;;;;;2.65;1.67;;;;;;;;;;4968766;28;20034;-81
2023/07/04 02:33:51;;;;;;;1.30;1.15;;;;;;;;;;4968956;28;20031;-80
2023/07/04 02:36:17;;;;;;;1.42;1.13;;;;;;;;;;4968381;28;20029;-80
2023/07/04 02:38:43;;;;;;;3.03;1.70;;;;;;;;;;4968426;28;20027;-82
2023/07/04 02:41:09;;;;;;;2.60;1.63;;;;;;;;;;4967567;28;20046;-81
2023/07/04 02:43:36;;;;;;;1.65;1.33;;;;;;;;;;4969369;28;20038;-80
2023/07/04 02:46:03;;;;;;;2.30;1.33;;;;;;;;;;4968936;28;20034;-80
2023/07/04 02:48:29;;;;;;;1.77;1.35;;;;;;;;;;4968041;28;20025;-80
2023/07/04 02:50:55;;;;;;;1.60;1.10;;;;;;;;;;4966731;28;20038;-79
2023/07/04 02:53:22;;;;;;;2.83;1.45;;;;;;;;;;4967820;28;20023;-80
2023/07/04 02:55:48;;;;;;;2.22;1.50;;;;;;;;;;4965457;28;20074;-80
2023/07/04 02:58:18;;;;;;;1.30;1.20;;;;;;;;;;4967505;28;20558;-80
2023/07/04 03:00:45;;;;;;;2.45;1.30;;;;;;;;;;4965274;28;20026;-80
2023/07/04 03:03:11;;;;;;;2.35;1.25;;;;;;;;;;4964897;28;20023;-80
2023/07/04 03:05:37;;;;;;;1.73;1.30;;;;;;;;;;4965585;28;20777;-79
2023/07/04 03:08:03;;;;;;;1.75;1.15;;;;;;;;;;4967610;28;20073;-80
2023/07/04 03:10:30;;;;;;;2.58;1.67;;;;;;;;;;4968138;28;20493;-80
2023/07/04 03:12:56;;;;;;;2.17;1.25;;;;;;;;;;4965233;28;20474;-80
2023/07/04 03:15:21;;;;;;;1.67;1.40;;;;;;;;;;4965526;28;20038;-80
2023/07/04 03:17:48;;;;;;;1.70;1.60;;;;;;;;;;4975799;28;20026;-81
2023/07/04 03:20:16;;;;;;;1.95;1.17;;;;;;;;;;4978511;28;20034;-81
2023/07/04 03:22:43;;;;;;;2.13;1.48;;;;;;;;;;4965510;28;20038;-80
2023/07/04 03:25:12;;;;;;;1.70;1.20;;;;;;;;;;4967847;28;20039;-81
2023/07/04 03:27:39;;;;;;;1.60;1.25;;;;;;;;;;4978237;28;20027;-80
2023/07/04 03:30:06;;;;;;;2.97;1.55;;;;;;;;;;4961312;28;20031;-79
2023/07/04 03:32:32;;;;;;;1.40;1.30;;;;;;;;;;4966669;28;20058;-80
2023/07/04 03:35:01;;;;;;;4.50;1.17;;;;;;;;;;4962405;28;20039;-81
2023/07/04 03:37:28;;;;;;;2.17;1.20;;;;;;;;;;4967365;28;20027;-79
2023/07/04 03:39:54;;;;;;;1.85;1.40;;;;;;;;;;4966315;28;20043;-81
2023/07/04 03:42:20;;;;;;;2.50;1.27;;;;;;;;;;4970465;28;20038;-81
2023/07/04 03:44:46;;;;;;;5.82;2.50;;;;;;;;;;4968554;28;20039;-79
2023/07/04 03:47:12;;;;;;;2.13;1.45;;;;;;;;;;4969016;28;20031;-79
2023/07/04 03:49:38;;;;;;;2.70;1.63;;;;;;;;;;4967219;28;20113;-79
2023/07/04 03:52:04;;;;;;;1.50;1.17;;;;;;;;;;4968479;28;20023;-80
2023/07/04 03:54:30;;;;;;;3.00;1.65;;;;;;;;;;4970153;28;20110;-80
2023/07/04 03:56:56;;;;;;;1.92;1.40;;;;;;;;;;4968395;28;20390;-80
2023/07/04 03:59:22;;;;;;;2.67;1.10;;;;;;;;;;4970576;28;20490;-79
2023/07/04 04:01:48;;;;;;;4.57;1.83;;;;;;;;;;4967670;28;20036;-82
2023/07/04 04:04:14;;;;;;;1.73;1.30;;;;;;;;;;4963475;28;20027;-78
2023/07/04 04:06:40;;;;;;;1.73;1.17;;;;;;;;;;4972247;28;20027;-81
2023/07/04 04:09:06;;;;;;;2.40;1.10;;;;;;;;;;4972213;28;20578;-81
2023/07/04 04:11:32;;;;;;;1.42;0.95;;;;;;;;;;4970100;28;20025;-81
2023/07/04 04:13:58;;;;;;;2.05;1.30;;;;;;;;;;4971163;28;20037;-79
2023/07/04 04:16:24;;;;;;;3.13;1.27;;;;;;;;;;4975720;28;20489;-81
2023/07/04 04:18:51;;;;;;;3.58;1.08;;;;;;;;;;4978552;28;20030;-79
2023/07/04 04:21:17;;;;;;;4.38;1.38;;;;;;;;;;4974046;28;20446;-81
2023/07/04 04:23:43;;;;;;;4.85;1.55;;;;;;;;;;4970783;28;20383;-80
2023/07/04 04:26:10;;;;;;;2.63;1.48;;;;;;;;;;4972059;28;20081;-81
2023/07/04 04:28:35;;;;;;;1.27;1.05;;;;;;;;;;4971600;28;20027;-82
2023/07/04 04:31:02;;;;;;;1.73;1.10;;;;;;;;;;4970850;28;20426;-79
2023/07/04 04:33:27;;;;;;;2.03;1.10;;;;;;;;;;4969627;28;20050;-81
2023/07/04 04:35:56;;;;;;;3.25;1.27;;;;;;;;;;4967891;28;20042;-80
2023/07/04 04:38:22;;;;;;;1.38;1.00;;;;;;;;;;4968904;28;20794;-80
2023/07/04 04:40:50;;;;;;;2.28;1.38;;;;;;;;;;4969707;28;20429;-81
2023/07/04 04:43:16;;;;;;;3.80;1.23;;;;;;;;;;4970963;28;20117;-83
2023/07/04 04:45:43;;;;;;;1.55;1.40;;;;;;;;;;4969642;28;20367;-80
2023/07/04 04:48:09;;;;;;;2.28;1.00;;;;;;;;;;4966888;28;20438;-81
2023/07/04 04:50:36;;;;;;;4.43;1.67;;;;;;;;;;4969778;28;20026;-80
2023/07/04 04:53:02;;;;;;;2.63;1.38;;;;;;;;;;4968997;28;20496;-82
2023/07/04 04:55:28;;;;;;;1.42;1.17;;;;;;;;;;4952554;28;20023;-80
2023/07/04 04:57:54;;;;;;;2.83;1.35;;;;;;;;;;4969800;28;20031;-81
2023/07/04 05:00:22;;;;;;;1.58;1.15;;;;;;;;;;4968852;28;20117;-79
2023/07/04 05:02:48;;;;;;;2.30;1.67;;;;;;;;;;4969214;28;20042;-80
2023/07/04 05:05:15;;;;;;;2.78;1.55;;;;;;;;;;4969444;28;20835;-81
2023/07/04 05:07:41;;;;;;;2.42;1.40;;;;;;;;;;4969330;28;20054;-81
2023/07/04 05:10:07;;;;;;;1.35;1.10;;;;;;;;;;4967391;28;20038;-80
2023/07/04 05:12:34;;;;;;;1.77;1.30;;;;;;;;;;4970131;28;20022;-82
2023/07/04 05:15:00;;;;;;;4.63;1.73;;;;;;;;;;4968767;28;20382;-80
2023/07/04 05:17:26;;;;;;;1.35;1.02;;;;;;;;;;4974843;28;20027;-80
2023/07/04 05:19:52;;;;;;;2.30;1.30;;;;;;;;;;4968098;28;20030;-80
2023/07/04 05:22:19;;;;;;;3.85;1.80;;;;;;;;;;4968167;28;20045;-80
2023/07/04 05:24:45;;;;;;;2.05;1.33;;;;;;;;;;4970633;28;20397;-79
2023/07/04 05:27:11;;;;;;;2.60;1.48;;;;;;;;;;4969960;28;20536;-80
2023/07/04 05:29:37;;;;;;;1.50;1.25;;;;;;;;;;4967520;28;20030;-79
2023/07/04 05:32:03;;;;;;;2.92;1.27;;;;;;;;;;4970677;28;20089;-80
2023/07/04 05:34:29;;;;;;;1.83;1.30;;;;;;;;;;4966196;28;20529;-80
2023/07/04 05:36:55;;;;;;;3.03;1.50;;;;;;;;;;4970058;28;20599;-80
2023/07/04 05:39:21;;;;;;;1.75;1.23;;;;;;;;;;4971281;28;20031;-81
2023/07/04 05:41:47;;;;;;;2.17;1.30;;;;;;;;;;4969577;28;20034;-81
2023/07/04 05:44:13;;;;;;;2.40;1.42;;;;;;;;;;4967447;28;20082;-79
2023/07/04 05:46:40;;;;;;;2.55;1.52;;;;;;;;;;4967785;28;20528;-80
2023/07/04 05:49:29;;;;;;;4.45;1.40;;;;;;;;;;4970766;28;20117;-81
2023/07/04 05:51:55;;;;;;;3.47;1.20;;;;;;;;;;4967849;28;20371;-81
2023/07/04 05:54:21;;;;;;;2.47;1.05;;;;;;;;;;4970877;28;20470;-81
2023/07/04 05:56:51;;;;;;;2.22;1.25;;;;;;;;;;4970162;28;20057;-79
2023/07/04 05:59:17;;;;;;;1.95;1.00;;;;;;;;;;4963227;28;20171;-78
2023/07/04 06:01:44;;;;;;;2.78;1.38;;;;;;;;;;4964426;28;20034;-78
2023/07/04 06:04:11;;;;;;;2.38;1.35;;;;;;;;;;4969737;28;20450;-78
2023/07/04 06:06:41;;;;;;;1.10;0.77;;;;;;;;;;4968735;28;20098;-78
2023/07/04 06:09:09;;;;;;;1.30;1.10;;;;;;;;;;4967756;28;20541;-79
2023/07/04 06:11:36;;;;;;;1.35;1.10;;;;;;;;;;4962430;28;20033;-77
2023/07/04 06:14:03;;;;;;;1.98;1.00;;;;;;;;;;4969291;28;20105;-78
2023/07/04 06:16:29;;;;;;;4.68;1.35;;;;;;;;;;4975094;28;20072;-79
2023/07/04 06:18:55;;;;;;;3.13;1.40;;;;;;;;;;4972300;28;20114;-79
2023/07/04 06:21:22;;;;;;;1.67;1.10;;;;;;;;;;4964072;28;20038;-80
2023/07/04 06:23:49;;;;;;;1.50;1.40;;;;;;;;;;4967904;28;20089;-79
2023/07/04 06:26:15;;;;;;;1.38;1.02;;;;;;;;;;4968868;28;20081;-79
2023/07/04 06:28:42;;;;;;;2.15;1.30;;;;;;;;;;4966182;28;20538;-78
2023/07/04 06:31:10;;;;;;;0.77;0.73;;;;;;;;;;4967308;28;20062;-79
2023/07/04 06:33:36;;;;;;;4.43;1.23;;;;;;;;;;4964812;28;20479;-79
2023/07/04 06:36:02;;;;;;;2.05;1.10;;;;;;;;;;4964900;28;20102;-79
2023/07/04 06:38:28;;;;;;;3.42;1.52;;;;;;;;;;4967966;28;20129;-78
2023/07/04 06:40:56;;;;;;;3.30;1.88;;;;;;;;;;4969697;28;20166;-78
2023/07/04 06:43:21;;;;;;;1.17;1.08;;;;;;;;;;4965596;28;20034;-78
2023/07/04 06:45:47;;;;;;;1.60;1.20;;;;;;;;;;4968326;28;20975;-78
2023/07/04 06:48:13;;;;;;;1.20;0.80;;;;;;;;;;4964043;28;20027;-78
2023/07/04 06:50:39;;;;;;;1.67;1.40;;;;;;;;;;4967102;28;20072;-79
2023/07/04 06:53:06;;;;;;;1.90;1.10;;;;;;;;;;4965725;28;20047;-78
2023/07/04 06:55:32;;;;;;;1.35;0.90;;;;;;;;;;4969550;28;20046;-78
2023/07/04 06:57:58;;;;;;;1.90;1.08;;;;;;;;;;4968445;28;20034;-78
2023/07/04 07:00:24;;;;;;;1.95;1.20;;;;;;;;;;4967875;28;20034;-79
2023/07/04 07:02:53;;;;;;;3.30;1.30;;;;;;;;;;4965690;28;20371;-78
2023/07/04 07:05:19;;;;;;;1.45;1.10;;;;;;;;;;4963848;28;20109;-78
2023/07/04 07:07:48;;;;;;;3.33;1.40;;;;;;;;;;4965096;28;20047;-80
2023/07/04 07:10:14;;;;;;;1.85;1.10;;;;;;;;;;4966950;28;20117;-79
2023/07/04 07:12:40;;;;;;;1.38;0.90;;;;;;;;;;4969418;28;20046;-78
2023/07/04 07:15:06;;;;;;;1.80;0.90;;;;;;;;;;4967991;28;20723;-78
2023/07/04 07:17:36;;;;;;;2.20;1.00;;;;;;;;;;4981067;28;20041;-79
2023/07/04 07:20:05;;;;;;;1.42;0.90;;;;;;;;;;4955344;28;20482;-79
2023/07/04 07:22:31;;;;;;;2.47;1.30;;;;;;;;;;4969553;28;20066;-79
2023/07/04 07:24:57;;;;;;;1.58;1.08;;;;;;;;;;4969278;28;20045;-78
2023/07/04 07:27:23;;;;;;;2.15;1.25;;;;;;;;;;4969235;28;20397;-79
2023/07/04 07:29:49;;;;;;;1.35;1.05;;;;;;;;;;4967874;28;20142;-78
2023/07/04 07:32:15;;;;;;;4.10;1.13;;;;;;;;;;4967906;28;20489;-78
2023/07/04 07:34:41;;;;;;;2.58;1.10;;;;;;;;;;4969158;28;20384;-78
2023/07/04 07:37:08;;;;;;;1.60;1.25;;;;;;;;;;4968799;28;20089;-78
2023/07/04 07:39:34;;;;;;;3.28;1.38;;;;;;;;;;4969187;28;20029;-78
2023/07/04 07:42:00;;;;;;;2.80;0.88;;;;;;;;;;4967307;28;20034;-80
2023/07/04 07:44:26;;;;;;;1.75;0.95;;;;;;;;;;4969166;28;20414;-79
2023/07/04 07:46:52;;;;;;;1.42;1.25;;;;;;;;;;4968751;28;20027;-79
2023/07/04 07:49:18;;;;;;;2.75;1.15;;;;;;;;;;4967628;28;20027;-79
2023/07/04 07:51:45;;;;;;;1.20;0.88;;;;;;;;;;4969051;28;20074;-79
2023/07/04 07:54:13;;;;;;;2.15;1.17;;;;;;;;;;4969414;28;20082;-79
2023/07/04 07:56:40;;;;;;;1.13;0.90;;;;;;;;;;4969167;28;20546;-79
2023/07/04 07:59:06;;;;;;;2.45;1.17;;;;;;;;;;4968054;28;20097;-78
2023/07/04 08:01:33;;;;;;;1.77;1.25;;;;;;;;;;4969058;28;20019;-78
2023/07/04 08:03:59;;;;;;;2.30;1.48;;;;;;;;;;4967255;28;20054;-77
2023/07/04 08:06:29;;;;;;;1.35;1.25;;;;;;;;;;4967438;28;20070;-78
2023/07/04 08:08:56;;;;;;;1.40;0.90;;;;;;;;;;4968694;28;20106;-80
2023/07/04 08:11:22;;;;;;;1.63;1.38;;;;;;;;;;4968445;28;20033;-77
2023/07/04 08:13:48;;;;;;;2.15;1.10;;;;;;;;;;4967498;28;20382;-77
2023/07/04 08:16:19;;;;;;;1.42;1.00;;;;;;;;;;4970563;28;20042;-78
2023/07/04 08:18:45;;;;;;;4.75;2.25;;;;;;;;;;4974920;28;20022;-79
2023/07/04 08:21:11;;;;;;;0.98;0.90;;;;;;;;;;4968906;28;20023;-79
2023/07/04 08:23:37;;;;;;;0.98;0.90;;;;;;;;;;4968768;28;20375;-78
2023/07/04 08:26:03;;;;;;;1.17;1.05;;;;;;;;;;4966769;28;20038;-78
2023/07/04 08:28:29;;;;;;;1.52;0.77;;;;;;;;;;4971230;28;20035;-78
2023/07/04 08:31:04;;;;;;;2.38;0.90;;;;;;;;;;4970605;28;20035;-77
2023/07/04 08:33:30;;;;;;;1.10;1.00;;;;;;;;;;4972075;28;20022;-78
2023/07/04 08:36:04;;;;;;;2.33;1.05;;;;;;;;;;4971863;28;20027;-79
2023/07/04 08:38:30;;;;;;;1.98;1.17;;;;;;;;;;4972415;28;20596;-79
2023/07/04 08:40:56;;;;;;;1.02;0.93;;;;;;;;;;4970300;28;20121;-79
2023/07/04 08:43:45;;;;;;;0.88;0.88;;;;;;;;;;4972024;28;20035;-78
2023/07/04 08:46:12;;;;;;;1.13;1.08;;;;;;;;;;4971594;28;20034;-78
2023/07/04 08:48:40;;;;;;;1.33;0.82;;;;;;;;;;4971355;28;20039;-78
2023/07/04 08:51:06;;;;;;;1.42;0.90;;;;;;;;;;4969955;28;20037;-78
2023/07/04 08:53:32;;;;;;;4.38;1.00;;;;;;;;;;4972083;28;20398;-78
2023/07/04 08:55:58;;;;;;;0.88;0.80;;;;;;;;;;4971572;28;20035;-78
2023/07/04 08:58:27;;;;;;;1.55;0.90;;;;;;;;;;4971744;28;20023;-79
2023/07/04 09:00:56;;;;;;;0.98;0.90;;;;;;;;;;4970118;28;20029;-79
2023/07/04 09:03:28;;;;;;;2.60;0.80;;;;;;;;;;4970102;28;20027;-78
2023/07/04 09:06:06;;;;;;;1.23;0.95;;;;;;;;;;4971254;28;20039;-77
2023/07/04 09:08:50;;;;;;;2.70;1.00;;;;;;;;;;4971345;28;20031;-78
2023/07/04 09:11:17;;;;;;;2.45;1.25;;;;;;;;;;4970432;28;20072;-78
2023/07/04 09:13:48;;;;;;;1.50;1.10;;;;;;;;;;4970722;28;20482;-78
2023/07/04 09:16:19;;;;;;;1.35;1.10;;;;;;;;;;4974695;28;20027;-78
2023/07/04 09:18:59;;;;;;;1.33;0.93;;;;;;;;;;4978853;28;20114;-78
2023/07/04 09:21:26;;;;;;;0.97;0.70;;;;;;;;;;4971523;28;20058;-77
2023/07/04 09:23:52;;;;;;;1.75;1.13;;;;;;;;;;4965530;28;20289;-79
2023/07/04 09:26:20;;;;;;;2.63;0.80;;;;;;;;;;4968854;28;20034;-79
2023/07/04 09:28:48;;;;;;;2.03;1.55;;;;;;;;;;4970772;28;20053;-78
2023/07/04 09:31:19;;;;;;;0.98;0.88;;;;;;;;;;4971398;28;20545;-78
2023/07/04 09:33:47;;;;;;;0.85;0.75;;;;;;;;;;4969869;28;20363;-77
2023/07/04 09:36:14;;;;;;;1.65;1.00;;;;;;;;;;4971332;28;20462;-78
2023/07/04 09:38:57;;;;;;;1.15;0.70;;;;;;;;;;4969881;28;20333;-78
2023/07/04 09:41:27;;;;;;;0.90;0.82;;;;;;;;;;4971371;28;20129;-78
2023/07/04 09:43:54;;;;;;;0.73;0.73;;;;;;;;;;4970304;28;20034;-79
2023/07/04 09:46:28;;;;;;;1.05;0.60;;;;;;;;;;4971505;28;20043;-78
2023/07/04 09:48:55;;;;;;;1.27;1.00;;;;;;;;;;4964783;28;20394;-78
2023/07/04 09:51:24;;;;;;;1.63;1.00;;;;;;;;;;4951642;28;20027;-77
2023/07/04 09:53:50;;;;;;;0.70;0.70;;;;;;;;;;4957311;28;20053;-77
2023/07/04 09:56:27;;;;;;;4.88;1.05;;;;;;;;;;4970266;28;20058;-78
2023/07/04 09:59:12;;;;;;;2.53;1.15;;;;;;;;;;4970786;28;20468;-77
2023/07/04 10:01:39;;;;;;;1.70;0.95;;;;;;;;;;4971083;28;20430;-77
2023/07/04 10:04:08;;;;;;;0.90;0.70;;;;;;;;;;4969942;28;20557;-77
2023/07/04 10:06:36;;;;;;;1.33;0.82;;;;;;;;;;4967106;28;20053;-78
2023/07/04 10:09:05;;;;;;;0.82;0.77;;;;;;;;;;4967842;28;20034;-78
2023/07/04 10:11:34;;;;;;;1.67;0.73;;;;;;;;;;4970039;28;20023;-77
2023/07/04 10:14:11;;;;;;;1.33;1.10;;;;;;;;;;4969946;28;20023;-77
2023/07/04 10:16:44;;;;;;;0.75;0.52;;;;;;;;;;4974062;28;20031;-78
2023/07/04 10:19:12;;;;;;;1.02;0.70;;;;;;;;;;4974136;28;20070;-78
2023/07/04 10:21:41;;;;;;;1.45;0.85;;;;;;;;;;4970029;28;20113;-79
2023/07/04 10:24:08;;;;;;;1.13;0.70;;;;;;;;;;4970461;28;20617;-78
2023/07/04 10:26:35;;;;;;;2.33;0.70;;;;;;;;;;4969098;28;20050;-77
2023/07/04 10:29:02;;;;;;;1.17;0.60;;;;;;;;;;4969573;28;20027;-78
2023/07/04 10:31:28;;;;;;;1.35;0.80;;;;;;;;;;4970163;28;20947;-78
2023/07/04 10:34:01;;;;;;;4.18;0.90;;;;;;;;;;4969967;28;20398;-78
2023/07/04 10:36:31;;;;;;;0.90;0.70;;;;;;;;;;4967877;28;20034;-79
2023/07/04 10:38:59;;;;;;;1.63;1.00;;;;;;;;;;4968813;28;20014;-78
2023/07/04 10:41:34;;;;;;;1.05;0.80;;;;;;;;;;4970190;28;20493;-77
2023/07/04 10:44:02;;;;;;;2.85;0.80;;;;;;;;;;4969624;28;20501;-77
2023/07/04 10:46:30;;;;;;;1.20;0.98;;;;;;;;;;4970700;28;20035;-78
2023/07/04 10:49:04;;;;;;;1.13;0.90;;;;;;;;;;4968303;28;20023;-77
2023/07/04 10:51:33;;;;;;;2.28;0.80;;;;;;;;;;4968599;28;20453;-78
2023/07/04 10:53:59;;;;;;;1.75;0.75;;;;;;;;;;4969852;28;20504;-78
2023/07/04 10:56:31;;;;;;;1.48;0.98;;;;;;;;;;4968339;28;20058;-77
2023/07/04 10:59:04;;;;;;;0.88;0.80;;;;;;;;;;4968096;28;20539;-78
2023/07/04 11:01:34;;;;;;;1.10;0.80;;;;;;;;;;4970068;28;20031;-78
2023/07/04 11:04:04;;;;;;;1.13;1.00;;;;;;;;;;4969279;28;20756;-78
2023/07/04 11:06:42;;;;;;;1.50;0.90;;;;;;;;;;4969352;28;20057;-79
2023/07/04 11:09:12;;;;;;;1.95;0.90;;;;;;;;;;4968179;28;20038;-78
2023/07/04 11:11:38;;;;;;;1.05;0.93;;;;;;;;;;4965553;28;20042;-77
2023/07/04 11:14:06;;;;;;;1.30;0.90;;;;;;;;;;4968534;28;20023;-77
2023/07/04 11:16:33;;;;;;;0.80;0.70;;;;;;;;;;4974794;28;20076;-77
2023/07/04 11:19:08;;;;;;;0.60;0.60;;;;;;;;;;4975206;28;20593;-78
2023/07/04 11:21:34;;;;;;;1.10;1.00;;;;;;;;;;4968639;28;20118;-78
2023/07/04 11:24:14;;;;;;;2.20;1.17;;;;;;;;;;4967807;28;20038;-77
2023/07/04 11:26:51;;;;;;;1.00;0.80;;;;;;;;;;4969606;28;20023;-79
2023/07/04 11:29:19;;;;;;;1.40;1.25;;;;;;;;;;4968989;28;20046;-79
2023/07/04 11:32:03;;;;;;;1.05;0.90;;;;;;;;;;4966487;28;20034;-76
2023/07/04 11:34:43;;;;;;;2.22;1.23;;;;;;;;;;4969145;28;20021;-78
2023/07/04 11:37:15;;;;;;;1.25;0.80;;;;;;;;;;4969121;28;20374;-77
2023/07/04 11:39:41;;;;;;;1.25;0.75;;;;;;;;;;4969711;28;20089;-77
2023/07/04 11:42:30;;;;;;;1.38;1.00;;;;;;;;;;4967035;28;20039;-79
2023/07/04 11:45:01;;;;;;;1.35;0.95;;;;;;;;;;4966102;28;20456;-77
2023/07/04 11:47:35;;;;;;;1.38;0.73;;;;;;;;;;4968010;28;20030;-78
2023/07/04 11:50:07;;;;;;;2.22;0.90;;;;;;;;;;4968815;28;20135;-77
2023/07/04 11:52:34;;;;;;;1.83;1.00;;;;;;;;;;4967866;28;20098;-81
2023/07/04 11:55:02;;;;;;;0.77;0.73;;;;;;;;;;4963844;28;20011;-77
2023/07/04 11:57:46;;;;;;;1.08;0.98;;;;;;;;;;4961137;28;20037;-76
2023/07/04 12:00:24;;;;;;;16.10;1.23;;;;;;;;;;4964722;28;20069;-76
2023/07/04 12:02:50;;;;;;;2.28;0.85;;;;;;;;;;4967727;28;20031;-76
2023/07/04 12:05:30;;;;;;;1.50;0.82;;;;;;;;;;4970335;28;20042;-76
2023/07/04 12:07:59;;;;;;;0.93;0.82;;;;;;;;;;4970120;28;20470;-76
2023/07/04 12:10:28;;;;;;;2.42;1.00;;;;;;;;;;4970329;28;20031;-75
2023/07/04 12:12:59;;;;;;;1.88;1.30;;;;;;;;;;4971300;28;20031;-76
2023/07/04 12:15:27;;;;;;;1.83;1.20;;;;;;;;;;4971603;28;20019;-77
2023/07/04 12:17:58;;;;;;;1.98;1.15;;;;;;;;;;4977634;28;20114;-76
2023/07/04 12:20:24;;;;;;;1.02;0.85;;;;;;;;;;4969921;28;20086;-76
2023/07/04 12:23:00;;;;;;;1.80;1.30;;;;;;;;;;4968431;28;20030;-77
2023/07/04 12:25:41;;;;;;;1.23;1.05;;;;;;;;;;4967208;28;20081;-77
2023/07/04 12:28:09;;;;;;;1.20;1.00;;;;;;;;;;4970247;28;20030;-77
2023/07/04 12:30:38;;;;;;;1.42;0.93;;;;;;;;;;4969804;28;20521;-75
2023/07/04 12:33:04;;;;;;;1.95;1.30;;;;;;;;;;4968405;28;20118;-77
2023/07/04 12:35:32;;;;;;;1.58;1.10;;;;;;;;;;4968500;28;20031;-76
2023/07/04 12:37:58;;;;;;;2.20;1.05;;;;;;;;;;4970485;28;20406;-79
2023/07/04 12:40:28;;;;;;;1.75;1.17;;;;;;;;;;4967937;28;20054;-77
2023/07/04 12:42:55;;;;;;;1.38;1.23;;;;;;;;;;4969251;28;20042;-76
2023/07/04 12:45:25;;;;;;;2.15;1.35;;;;;;;;;;4970882;28;20093;-76
2023/07/04 12:47:52;;;;;;;1.00;1.00;;;;;;;;;;4968947;28;20035;-76
2023/07/04 12:50:22;;;;;;;1.55;1.23;;;;;;;;;;4966544;28;20081;-78
2023/07/04 12:52:49;;;;;;;2.25;1.30;;;;;;;;;;4969535;28;20057;-75
2023/07/04 12:55:21;;;;;;;1.38;1.25;;;;;;;;;;4968912;28;20114;-77
2023/07/04 12:57:49;;;;;;;1.10;0.90;;;;;;;;;;4963818;28;20030;-78
2023/07/04 13:00:19;;;;;;;1.70;1.33;;;;;;;;;;4969182;28;20031;-77
2023/07/04 13:02:47;;;;;;;0.82;0.82;;;;;;;;;;4969631;28;20081;-76
2023/07/04 13:05:13;;;;;;;1.08;0.98;;;;;;;;;;4970049;28;20029;-76
2023/07/04 13:07:42;;;;;;;2.20;1.20;;;;;;;;;;4966202;28;20058;-76
2023/07/04 13:10:10;;;;;;;1.92;1.40;;;;;;;;;;4968442;28;20077;-76
2023/07/04 13:12:36;;;;;;;2.67;1.25;;;;;;;;;;4968851;28;20478;-76
2023/07/04 13:15:06;;;;;;;3.22;1.40;;;;;;;;;;4970792;28;20030;-76
2023/07/04 13:17:32;;;;;;;1.33;1.05;;;;;;;;;;4977725;28;20029;-79
2023/07/04 13:20:09;;;;;;;1.38;1.20;;;;;;;;;;4966459;28;20170;-76
2023/07/04 13:22:35;;;;;;;2.45;1.20;;;;;;;;;;4969935;28;20474;-75
2023/07/04 13:25:20;;;;;;;1.75;1.02;;;;;;;;;;4967665;28;20038;-76
2023/07/04 13:27:46;;;;;;;1.17;0.90;;;;;;;;;;4966959;28;20069;-76
2023/07/04 13:30:23;;;;;;;0.88;0.88;;;;;;;;;;4968983;28;20037;-78
2023/07/04 13:32:49;;;;;;;1.88;1.13;;;;;;;;;;4967353;28;20170;-79
2023/07/04 13:35:23;;;;;;;0.93;0.90;;;;;;;;;;4968535;28;20129;-76
2023/07/04 13:37:49;;;;;;;3.30;0.75;;;;;;;;;;4968946;28;20015;-77
2023/07/04 13:40:15;;;;;;;0.80;0.80;;;;;;;;;;4968251;28;20025;-78
2023/07/04 13:42:41;;;;;;;3.38;0.85;;;;;;;;;;4967680;28;20023;-77
2023/07/04 13:45:10;;;;;;;2.10;1.00;;;;;;;;;;4968990;28;20215;-78
2023/07/04 13:47:36;;;;;;;5.18;1.27;;;;;;;;;;4967345;28;20023;-80
2023/07/04 13:50:05;;;;;;;1.10;0.90;;;;;;;;;;4968564;28;20584;-76
2023/07/04 13:52:31;;;;;;;0.73;0.73;;;;;;;;;;4969050;28;20034;-78
2023/07/04 13:54:59;;;;;;;1.17;1.00;;;;;;;;;;4967153;28;20173;-77
2023/07/04 13:57:25;;;;;;;1.15;0.85;;;;;;;;;;4969200;28;20019;-76
2023/07/04 13:59:51;;;;;;;1.67;0.88;;;;;;;;;;4967976;28;20101;-76
2023/07/04 14:02:17;;;;;;;1.67;0.70;;;;;;;;;;4970446;28;20076;-76
2023/07/04 14:04:43;;;;;;;1.17;1.08;;;;;;;;;;4963826;28;20034;-76
2023/07/04 14:07:09;;;;;;;1.10;1.00;;;;;;;;;;4969671;28;20045;-76
2023/07/04 14:09:35;;;;;;;3.85;1.13;;;;;;;;;;4970338;28;20479;-76
2023/07/04 14:12:01;;;;;;;1.00;0.80;;;;;;;;;;4970253;28;20015;-76
2023/07/04 14:14:27;;;;;;;0.95;0.95;;;;;;;;;;4968942;28;20655;-76
2023/07/04 14:16:54;;;;;;;0.80;0.80;;;;;;;;;;4975725;28;20830;-76
2023/07/04 14:19:19;;;;;;;0.95;0.90;;;;;;;;;;4960864;28;20037;-76
2023/07/04 14:21:46;;;;;;;1.77;0.90;;;;;;;;;;4969575;28;20022;-75
2023/07/04 14:24:12;;;;;;;1.20;1.10;;;;;;;;;;4965181;28;20037;-76
2023/07/04 14:26:38;;;;;;;3.58;1.20;;;;;;;;;;4963382;28;20478;-76
2023/07/04 14:29:04;;;;;;;3.80;1.45;;;;;;;;;;4968225;28;20033;-76
2023/07/04 14:31:31;;;;;;;1.85;1.10;;;;;;;;;;4969255;28;20421;-76
2023/07/04 14:33:57;;;;;;;1.15;0.90;;;;;;;;;;4969480;28;20466;-76
2023/07/04 14:36:24;;;;;;;2.50;1.13;;;;;;;;;;4967971;28;20465;-77
2023/07/04 14:38:50;;;;;;;2.00;1.10;;;;;;;;;;4966066;28;20117;-76
2023/07/04 14:41:16;;;;;;;2.88;1.02;;;;;;;;;;4968914;28;20029;-76
2023/07/04 14:43:43;;;;;;;1.83;0.93;;;;;;;;;;4968483;28;20038;-76
2023/07/04 14:46:09;;;;;;;1.77;1.00;;;;;;;;;;4968015;28;20035;-76
2023/07/04 14:48:35;;;;;;;1.30;0.98;;;;;;;;;;4967970;28;20023;-76